Time;durP1;ratioP1;P1;durP2;ratioP2;P2;SDS_P1;SDS_P2;PMS_P1;PMS_P2;Temp;Humidity;BMP_temperature;BMP_pressure;BME280_temperature;BME280_humidity;BME280_pressure;Samples;Min_cycle;Max_cycle;Signal;HPM_P1;HPM_P2
2021/06/07 00:00:09;;;;;;;14.20;12.68;;;18.90;99.90;;;;;;2070838;28;20030;-69
2021/06/07 00:01:14;;;;;;;13.02;11.57;;;18.90;99.90;;;;;;2088926;28;20046;-69
2021/06/07 00:02:16;;;;;;;15.13;12.85;;;18.80;99.90;;;;;;2070148;28;20105;-69
2021/06/07 00:03:17;;;;;;;13.68;12.38;;;18.90;99.90;;;;;;2070775;28;20029;-69
2021/06/07 00:04:17;;;;;;;13.02;11.70;;;18.80;99.90;;;;;;2070754;28;20479;-69
2021/06/07 00:05:18;;;;;;;12.75;11.50;;;18.80;99.90;;;;;;2070878;28;20411;-69
2021/06/07 00:06:19;;;;;;;14.20;12.80;;;18.80;99.90;;;;;;2070515;28;20022;-69
2021/06/07 00:07:20;;;;;;;13.57;12.18;;;18.80;99.90;;;;;;2071115;28;20074;-69
2021/06/07 00:08:21;;;;;;;14.52;13.02;;;18.80;99.90;;;;;;2070897;28;20054;-69
2021/06/07 00:09:22;;;;;;;11.68;10.45;;;18.80;99.90;;;;;;2070772;28;20075;-69
2021/06/07 00:10:23;;;;;;;13.80;12.40;;;18.80;99.90;;;;;;2070417;28;20102;-69
2021/06/07 00:11:24;;;;;;;12.90;11.70;;;18.80;99.90;;;;;;2070171;28;20037;-69
2021/06/07 00:12:24;;;;;;;12.80;11.57;;;18.90;99.90;;;;;;2070446;28;20061;-69
2021/06/07 00:13:26;;;;;;;15.23;13.32;;;18.90;99.90;;;;;;2071036;28;20495;-69
2021/06/07 00:14:30;;;;;;;13.15;11.45;;;18.90;99.90;;;;;;2070488;28;20026;-69
2021/06/07 00:15:31;;;;;;;14.45;12.25;;;18.90;99.90;;;;;;2070571;28;20050;-69
2021/06/07 00:16:32;;;;;;;14.13;12.73;;;18.90;99.90;;;;;;2070713;28;20094;-69
2021/06/07 00:17:33;;;;;;;13.88;12.43;;;18.90;99.90;;;;;;2074393;28;20532;-69
2021/06/07 00:18:33;;;;;;;19.17;12.23;;;18.90;99.90;;;;;;2078877;28;20483;-69
2021/06/07 00:19:37;;;;;;;15.85;12.88;;;18.90;99.90;;;;;;2078815;28;20061;-69
2021/06/07 00:20:45;;;;;;;14.82;13.52;;;18.90;99.90;;;;;;2078749;28;20045;-69
2021/06/07 00:21:47;;;;;;;15.73;12.45;;;18.90;99.90;;;;;;2078605;28;20030;-69
2021/06/07 00:22:48;;;;;;;14.27;12.98;;;18.90;99.90;;;;;;2078721;28;20027;-69
2021/06/07 00:23:49;;;;;;;15.00;12.40;;;18.90;99.90;;;;;;2078704;28;20038;-69
2021/06/07 00:24:49;;;;;;;13.63;12.23;;;18.90;99.90;;;;;;2078972;28;20029;-69
2021/06/07 00:25:52;;;;;;;13.93;12.52;;;18.90;99.90;;;;;;2079130;28;20037;-69
2021/06/07 00:26:53;;;;;;;14.65;12.82;;;18.90;99.90;;;;;;2078763;28;20533;-69
2021/06/07 00:27:54;;;;;;;17.17;14.07;;;18.90;99.90;;;;;;2078238;28;20529;-69
2021/06/07 00:28:55;;;;;;;14.13;12.73;;;18.90;99.90;;;;;;2078017;28;20056;-69
2021/06/07 00:29:55;;;;;;;14.95;13.02;;;18.90;99.90;;;;;;2079127;28;20032;-69
2021/06/07 00:30:56;;;;;;;15.48;13.88;;;18.90;99.90;;;;;;2073076;28;20037;-69
2021/06/07 00:31:56;;;;;;;14.35;12.88;;;18.90;99.90;;;;;;2070183;28;20177;-69
2021/06/07 00:32:57;;;;;;;14.20;12.73;;;18.90;99.90;;;;;;2070797;28;20561;-69
2021/06/07 00:33:58;;;;;;;14.15;12.75;;;18.90;99.90;;;;;;2070859;28;20032;-69
2021/06/07 00:34:59;;;;;;;14.95;13.45;;;18.90;99.90;;;;;;2070560;28;20033;-69
2021/06/07 00:36:00;;;;;;;14.20;12.25;;;18.80;99.90;;;;;;2070659;28;20104;-69
2021/06/07 00:37:01;;;;;;;15.25;12.48;;;18.90;99.90;;;;;;2070805;28;20033;-69
2021/06/07 00:38:02;;;;;;;14.07;12.75;;;18.80;99.90;;;;;;2070921;28;20065;-69
2021/06/07 00:39:06;;;;;;;13.00;11.73;;;18.90;99.90;;;;;;2070616;28;20496;-69
2021/06/07 00:40:07;;;;;;;14.15;12.65;;;18.80;99.90;;;;;;2070529;28;20022;-69
2021/06/07 00:41:09;;;;;;;14.35;12.77;;;18.80;99.90;;;;;;2070705;28;20037;-69
2021/06/07 00:42:09;;;;;;;13.65;12.30;;;18.80;99.90;;;;;;2070341;28;20033;-69
2021/06/07 00:43:10;;;;;;;14.23;12.82;;;18.80;99.90;;;;;;2071175;28;20026;-69
2021/06/07 00:44:13;;;;;;;13.52;11.70;;;18.80;99.90;;;;;;2077226;28;20457;-69
2021/06/07 00:45:19;;;;;;;14.40;12.90;;;18.80;99.90;;;;;;2091334;28;20037;-69
2021/06/07 00:46:19;;;;;;;14.10;12.57;;;18.80;99.90;;;;;;2072413;28;20036;-69
2021/06/07 00:47:20;;;;;;;13.25;12.02;;;18.80;99.90;;;;;;2072608;28;20026;-69
2021/06/07 00:48:21;;;;;;;14.65;13.23;;;18.80;99.90;;;;;;2072513;28;20030;-69
2021/06/07 00:49:22;;;;;;;13.77;11.98;;;18.80;99.90;;;;;;2072601;28;20461;-69
2021/06/07 00:50:47;;;;;;;13.07;11.77;;;18.80;99.90;;;;;;2072317;28;20055;-69
2021/06/07 00:51:48;;;;;;;14.70;12.88;;;18.80;99.90;;;;;;2072003;28;20026;-69
2021/06/07 00:53:02;;;;;;;13.73;12.40;;;18.80;99.90;;;;;;2072621;28;20113;-69
2021/06/07 00:54:04;;;;;;;14.10;12.80;;;18.80;99.90;;;;;;2071499;28;20026;-69
2021/06/07 00:55:05;;;;;;;14.55;12.73;;;18.80;99.90;;;;;;2067569;28;20401;-69
2021/06/07 00:56:08;;;;;;;15.55;12.88;;;18.80;99.90;;;;;;2110965;28;20052;-69
2021/06/07 00:57:09;;;;;;;14.45;13.02;;;18.70;99.90;;;;;;2072641;28;20101;-69
2021/06/07 00:58:10;;;;;;;14.77;13.15;;;18.70;99.90;;;;;;2072382;28;20041;-69
2021/06/07 00:59:11;;;;;;;14.75;13.25;;;18.70;99.90;;;;;;2072539;28;20108;-69
2021/06/07 01:00:13;;;;;;;14.30;12.95;;;18.70;99.90;;;;;;2072461;28;20034;-68
2021/06/07 01:01:17;;;;;;;14.20;12.88;;;18.70;99.90;;;;;;2090667;28;20028;-69
2021/06/07 01:02:18;;;;;;;13.35;12.05;;;18.70;99.90;;;;;;2072206;28;20048;-69
2021/06/07 01:03:24;;;;;;;15.45;12.88;;;18.70;99.90;;;;;;2072516;28;20059;-69
2021/06/07 01:04:24;;;;;;;14.45;13.05;;;18.70;99.90;;;;;;2072361;28;20030;-69
2021/06/07 01:05:27;;;;;;;14.75;13.25;;;18.70;99.90;;;;;;2063792;28;20520;-69
2021/06/07 01:06:28;;;;;;;13.27;12.05;;;18.70;99.90;;;;;;2063647;28;20030;-69
2021/06/07 01:07:28;;;;;;;14.23;12.93;;;18.70;99.90;;;;;;2071746;28;20070;-69
2021/06/07 01:08:29;;;;;;;15.00;13.50;;;18.70;99.90;;;;;;2071933;28;20126;-69
2021/06/07 01:09:30;;;;;;;14.00;12.73;;;18.70;99.90;;;;;;2071514;28;20037;-69
2021/06/07 01:10:31;;;;;;;14.50;13.10;;;18.70;99.90;;;;;;2080567;28;20022;-69
2021/06/07 01:11:33;;;;;;;14.38;12.88;;;18.70;99.90;;;;;;2080328;28;20448;-69
2021/06/07 01:12:34;;;;;;;17.83;13.32;;;18.70;99.90;;;;;;2080109;28;20032;-69
2021/06/07 01:13:35;;;;;;;15.00;13.55;;;18.70;99.90;;;;;;2080688;28;20017;-69
2021/06/07 01:14:36;;;;;;;14.30;12.93;;;18.60;99.90;;;;;;2080382;28;20092;-69
2021/06/07 01:15:36;;;;;;;13.85;12.52;;;18.70;99.90;;;;;;2080699;28;20037;-69
2021/06/07 01:16:37;;;;;;;15.13;13.02;;;18.70;99.90;;;;;;2079266;28;20086;-69
2021/06/07 01:17:38;;;;;;;14.60;13.13;;;18.70;99.90;;;;;;2076687;28;20031;-69
2021/06/07 01:18:39;;;;;;;14.48;13.07;;;18.70;99.90;;;;;;2092134;28;20020;-69
2021/06/07 01:19:40;;;;;;;14.32;12.82;;;18.70;99.90;;;;;;2093490;28;20555;-69
2021/06/07 01:20:41;;;;;;;14.15;12.75;;;18.60;99.90;;;;;;2091507;28;20025;-69
2021/06/07 01:21:41;;;;;;;14.10;12.70;;;18.60;99.90;;;;;;2081308;28;20036;-69
2021/06/07 01:22:43;;;;;;;15.35;13.85;;;18.60;99.90;;;;;;2081076;28;20082;-69
2021/06/07 01:23:45;;;;;;;13.98;12.57;;;18.70;99.90;;;;;;2080338;28;20018;-69
2021/06/07 01:24:46;;;;;;;15.63;14.02;;;18.60;99.90;;;;;;2080548;28;20029;-69
2021/06/07 01:25:48;;;;;;;14.00;12.57;;;18.60;99.90;;;;;;2081412;28;20036;-69
2021/06/07 01:26:49;;;;;;;14.85;13.30;;;18.60;99.90;;;;;;2115063;28;20024;-69
2021/06/07 01:27:50;;;;;;;14.98;13.40;;;18.60;99.90;;;;;;2074994;28;20046;-69
2021/06/07 01:28:51;;;;;;;14.93;13.43;;;18.60;99.90;;;;;;2072328;28;20040;-69
2021/06/07 01:29:52;;;;;;;14.38;12.88;;;18.60;99.90;;;;;;2072240;28;20022;-69
2021/06/07 01:30:54;;;;;;;15.48;13.18;;;18.60;99.90;;;;;;2072475;28;20025;-69
2021/06/07 01:31:55;;;;;;;14.60;13.20;;;18.60;99.90;;;;;;2071950;28;20499;-69
2021/06/07 01:32:57;;;;;;;14.35;12.95;;;18.60;99.90;;;;;;2072383;28;20532;-69
2021/06/07 01:33:57;;;;;;;15.07;13.57;;;18.60;99.90;;;;;;2072150;28;20094;-69
2021/06/07 01:34:58;;;;;;;15.32;13.68;;;18.60;99.90;;;;;;2093394;28;20068;-69
2021/06/07 01:36:01;;;;;;;15.20;13.60;;;18.60;99.90;;;;;;2064998;28;20114;-69
2021/06/07 01:37:03;;;;;;;16.45;13.95;;;18.60;99.90;;;;;;2078513;28;20085;-70
2021/06/07 01:38:06;;;;;;;17.65;14.00;;;18.60;99.90;;;;;;2064328;28;20034;-69
2021/06/07 01:39:06;;;;;;;16.63;15.02;;;18.50;99.90;;;;;;2077432;28;20461;-69
2021/06/07 01:40:14;;;;;;;19.23;16.13;;;18.60;99.90;;;;;;2080307;28;20411;-69
2021/06/07 01:41:16;;;;;;;15.88;14.13;;;18.50;99.90;;;;;;2080335;28;20104;-69
2021/06/07 01:42:17;;;;;;;16.98;15.18;;;18.50;99.90;;;;;;2080144;28;20388;-69
2021/06/07 01:43:18;;;;;;;16.50;14.57;;;18.50;99.90;;;;;;2080315;28;20053;-69
2021/06/07 01:44:18;;;;;;;18.73;15.00;;;18.50;99.90;;;;;;2080432;28;20036;-69
2021/06/07 01:45:21;;;;;;;17.73;15.73;;;18.50;99.90;;;;;;2076891;28;20104;-69
2021/06/07 01:46:22;;;;;;;18.00;15.38;;;18.40;99.90;;;;;;2072332;28;20049;-69
2021/06/07 01:47:22;;;;;;;17.30;15.18;;;18.40;99.90;;;;;;2072147;28;20030;-69
2021/06/07 01:48:24;;;;;;;17.50;15.68;;;18.40;99.90;;;;;;2072275;28;20018;-69
2021/06/07 01:49:24;;;;;;;16.83;15.13;;;18.40;99.90;;;;;;2072300;28;20022;-69
2021/06/07 01:50:25;;;;;;;20.15;16.45;;;18.40;99.90;;;;;;2072120;28;20018;-69
2021/06/07 01:51:26;;;;;;;17.45;15.63;;;18.40;99.90;;;;;;2083173;28;20109;-69
2021/06/07 01:52:27;;;;;;;19.90;17.80;;;18.40;99.90;;;;;;2122585;28;20023;-69
2021/06/07 01:53:28;;;;;;;18.90;14.93;;;18.40;99.90;;;;;;2090235;28;20026;-69
2021/06/07 01:54:29;;;;;;;19.67;16.40;;;18.40;99.90;;;;;;2072098;28;20050;-69
2021/06/07 01:55:36;;;;;;;19.95;16.70;;;18.40;99.90;;;;;;2086684;28;20529;-69
2021/06/07 01:56:37;;;;;;;19.00;17.02;;;18.40;99.90;;;;;;2093185;28;20030;-69
2021/06/07 01:57:39;;;;;;;21.80;17.35;;;18.40;99.90;;;;;;2072207;28;20045;-69
2021/06/07 01:58:40;;;;;;;21.27;17.23;;;18.40;99.90;;;;;;2072142;28;20018;-69
2021/06/07 01:59:41;;;;;;;18.25;16.40;;;18.40;99.90;;;;;;2072266;28;20022;-69
2021/06/07 02:00:47;;;;;;;19.27;17.25;;;18.40;99.90;;;;;;2078748;28;20014;-69
2021/06/07 02:01:47;;;;;;;22.00;17.45;;;18.40;99.90;;;;;;2078123;28;20154;-69
2021/06/07 02:02:48;;;;;;;17.15;14.45;;;18.40;99.90;;;;;;2071785;28;20029;-69
2021/06/07 02:03:49;;;;;;;18.75;15.77;;;18.40;99.90;;;;;;2071931;28;20025;-69
2021/06/07 02:04:50;;;;;;;22.20;17.23;;;18.40;99.90;;;;;;2071962;28;20028;-69
2021/06/07 02:05:54;;;;;;;19.58;16.80;;;18.40;99.90;;;;;;2072171;28;20041;-69
2021/06/07 02:06:54;;;;;;;18.90;16.90;;;18.40;99.90;;;;;;2071963;28;20030;-69
2021/06/07 02:08:02;;;;;;;20.08;17.33;;;18.40;99.90;;;;;;2072141;28;20074;-69
2021/06/07 02:09:04;;;;;;;18.98;16.95;;;18.40;99.90;;;;;;2072128;28;20030;-69
2021/06/07 02:10:05;;;;;;;20.00;17.52;;;18.40;99.90;;;;;;2072228;28;20022;-69
2021/06/07 02:11:12;;;;;;;23.00;18.05;;;18.40;99.90;;;;;;2071986;28;20026;-69
2021/06/07 02:12:13;;;;;;;19.48;17.30;;;18.40;99.90;;;;;;2071982;28;20358;-69
2021/06/07 02:13:14;;;;;;;19.35;17.23;;;18.40;99.90;;;;;;2071990;28;20033;-69
2021/06/07 02:14:15;;;;;;;17.75;15.90;;;18.40;99.90;;;;;;2072158;28;20049;-69
2021/06/07 02:15:16;;;;;;;18.27;16.23;;;18.40;99.90;;;;;;2072090;28;20142;-69
2021/06/07 02:16:26;;;;;;;21.02;17.58;;;18.40;99.90;;;;;;2071590;28;20018;-69
2021/06/07 02:17:26;;;;;;;16.98;15.13;;;18.40;99.90;;;;;;2074178;28;20026;-69
2021/06/07 02:18:28;;;;;;;19.85;17.75;;;18.40;99.90;;;;;;2080352;28;20110;-69
2021/06/07 02:19:29;;;;;;;20.55;17.33;;;18.40;99.90;;;;;;2080171;28;20025;-69
2021/06/07 02:20:29;;;;;;;20.40;17.38;;;18.40;99.90;;;;;;2080272;28;20022;-69
2021/06/07 02:21:30;;;;;;;19.35;17.05;;;18.40;99.90;;;;;;2079916;28;20032;-69
2021/06/07 02:22:34;;;;;;;21.23;17.13;;;18.40;99.90;;;;;;2080233;28;20109;-69
2021/06/07 02:23:35;;;;;;;22.90;17.60;;;18.40;99.90;;;;;;2080123;28;20029;-69
2021/06/07 02:24:36;;;;;;;22.40;18.30;;;18.40;99.90;;;;;;2079704;28;20032;-69
2021/06/07 02:25:36;;;;;;;19.92;16.60;;;18.40;99.90;;;;;;2077581;28;20097;-69
2021/06/07 02:26:38;;;;;;;18.17;16.13;;;18.40;99.90;;;;;;2114646;28;20024;-69
2021/06/07 02:27:39;;;;;;;19.83;17.73;;;18.40;99.90;;;;;;2081607;28;20026;-69
2021/06/07 02:28:49;;;;;;;19.70;17.27;;;18.40;99.90;;;;;;2072266;28;20046;-69
2021/06/07 02:29:50;;;;;;;20.23;17.38;;;18.40;99.90;;;;;;2072016;28;20041;-69
2021/06/07 02:30:51;;;;;;;22.08;17.63;;;18.30;99.90;;;;;;2077932;28;20029;-69
2021/06/07 02:31:51;;;;;;;19.55;16.23;;;18.30;99.90;;;;;;2079786;28;20512;-69
2021/06/07 02:32:54;;;;;;;21.23;18.13;;;18.30;99.90;;;;;;2080311;27;20021;-69
2021/06/07 02:33:56;;;;;;;20.65;17.10;;;18.30;99.90;;;;;;2080411;28;20025;-69
2021/06/07 02:34:57;;;;;;;19.75;17.00;;;18.30;99.90;;;;;;2081302;28;20021;-69
2021/06/07 02:35:57;;;;;;;23.52;17.63;;;18.30;99.90;;;;;;2081497;28;20033;-69
2021/06/07 02:36:58;;;;;;;21.48;17.25;;;18.30;99.90;;;;;;2081515;28;20037;-69
2021/06/07 02:37:59;;;;;;;17.73;15.48;;;18.30;99.90;;;;;;2081533;28;20086;-69
2021/06/07 02:39:00;;;;;;;20.90;17.58;;;18.30;99.90;;;;;;2081633;28;20032;-69
2021/06/07 02:40:04;;;;;;;21.77;16.98;;;18.30;99.90;;;;;;2081371;28;20033;-69
2021/06/07 02:41:04;;;;;;;20.33;17.10;;;18.30;99.90;;;;;;2081636;28;20036;-69
2021/06/07 02:42:05;;;;;;;21.88;17.85;;;18.30;99.90;;;;;;2081177;28;20028;-69
2021/06/07 02:43:07;;;;;;;21.38;17.52;;;18.30;99.90;;;;;;2081309;28;20025;-69
2021/06/07 02:44:07;;;;;;;21.90;17.15;;;18.30;99.90;;;;;;2079820;27;20038;-69
2021/06/07 02:45:13;;;;;;;20.63;17.00;;;18.30;99.90;;;;;;2073449;28;20105;-69
2021/06/07 02:46:15;;;;;;;19.60;15.57;;;18.30;99.90;;;;;;2073170;28;20087;-69
2021/06/07 02:47:16;;;;;;;21.17;16.52;;;18.30;99.90;;;;;;2072711;28;20524;-69
2021/06/07 02:48:17;;;;;;;22.92;17.98;;;18.30;99.90;;;;;;2072580;28;20022;-69
2021/06/07 02:49:17;;;;;;;23.75;17.50;;;18.30;99.90;;;;;;2073477;28;20094;-69
2021/06/07 02:50:22;;;;;;;24.70;16.90;;;18.30;99.90;;;;;;2073190;28;20022;-69
2021/06/07 02:51:22;;;;;;;21.15;16.67;;;18.30;99.90;;;;;;2073158;28;20361;-69
2021/06/07 02:52:23;;;;;;;18.77;14.70;;;18.30;99.90;;;;;;2073165;28;20108;-69
2021/06/07 02:53:24;;;;;;;22.65;16.98;;;18.30;99.90;;;;;;2077900;28;20492;-69
2021/06/07 02:54:24;;;;;;;21.75;17.17;;;18.30;99.90;;;;;;2081397;28;20025;-69
2021/06/07 02:55:29;;;;;;;23.25;16.90;;;18.30;99.90;;;;;;2078646;28;20481;-69
2021/06/07 02:56:30;;;;;;;19.33;16.90;;;18.30;99.90;;;;;;2098612;28;20053;-69
2021/06/07 02:57:30;;;;;;;21.17;16.80;;;18.30;99.90;;;;;;2072396;28;20508;-69
2021/06/07 02:58:31;;;;;;;21.88;17.67;;;18.30;99.90;;;;;;2072274;28;20048;-69
2021/06/07 02:59:32;;;;;;;22.08;17.13;;;18.30;99.90;;;;;;2075082;28;20109;-69
2021/06/07 03:00:34;;;;;;;18.83;15.60;;;18.30;99.90;;;;;;2081317;28;20030;-69
2021/06/07 03:01:35;;;;;;;22.40;16.50;;;18.30;99.90;;;;;;2070111;28;20018;-69
2021/06/07 03:02:35;;;;;;;21.40;16.90;;;18.20;99.90;;;;;;2072291;28;20141;-69
2021/06/07 03:03:36;;;;;;;24.10;18.83;;;18.20;99.90;;;;;;2072703;28;20033;-69
2021/06/07 03:04:37;;;;;;;20.02;15.95;;;18.30;99.90;;;;;;2073188;28;20030;-69
2021/06/07 03:05:39;;;;;;;20.95;16.25;;;18.20;99.90;;;;;;2073248;28;20018;-69
2021/06/07 03:06:40;;;;;;;23.38;17.90;;;18.20;99.90;;;;;;2072845;28;20087;-69
2021/06/07 03:07:40;;;;;;;22.38;17.08;;;18.20;99.90;;;;;;2073369;28;20122;-69
2021/06/07 03:08:41;;;;;;;20.73;17.05;;;18.20;99.90;;;;;;2073182;28;20495;-69
2021/06/07 03:09:41;;;;;;;21.77;17.15;;;18.20;99.90;;;;;;2072909;28;20353;-69
2021/06/07 03:10:46;;;;;;;21.83;17.45;;;18.20;99.90;;;;;;2072400;28;20045;-69
2021/06/07 03:11:48;;;;;;;22.40;16.85;;;18.20;99.90;;;;;;2072005;28;20026;-69
2021/06/07 03:12:49;;;;;;;24.63;18.15;;;18.20;99.90;;;;;;2071167;28;20454;-69
2021/06/07 03:13:49;;;;;;;21.02;17.17;;;18.20;99.90;;;;;;2073258;28;20110;-69
2021/06/07 03:14:50;;;;;;;20.95;17.52;;;18.20;99.90;;;;;;2073164;28;20033;-69
2021/06/07 03:15:55;;;;;;;23.45;17.23;;;18.20;99.90;;;;;;2073078;28;20500;-69
2021/06/07 03:16:56;;;;;;;21.20;17.70;;;18.20;99.90;;;;;;2073097;28;20374;-69
2021/06/07 03:17:57;;;;;;;19.50;15.30;;;18.10;99.90;;;;;;2072435;28;20064;-69
2021/06/07 03:18:57;;;;;;;24.83;17.45;;;18.10;99.90;;;;;;2072543;28;20041;-69
2021/06/07 03:19:58;;;;;;;24.25;18.00;;;18.10;99.90;;;;;;2073139;28;20030;-69
2021/06/07 03:20:59;;;;;;;20.00;16.95;;;18.10;99.90;;;;;;2073178;28;20030;-69
2021/06/07 03:21:59;;;;;;;22.33;17.02;;;18.00;99.90;;;;;;2072713;28;20047;-69
2021/06/07 03:23:04;;;;;;;19.90;17.35;;;18.00;99.90;;;;;;2073180;28;20041;-69
2021/06/07 03:24:05;;;;;;;26.33;17.95;;;18.00;99.90;;;;;;2072767;28;20140;-69
2021/06/07 03:25:07;;;;;;;23.17;17.85;;;18.00;99.90;;;;;;2073136;28;20030;-69
2021/06/07 03:26:08;;;;;;;20.42;17.02;;;18.00;99.90;;;;;;2079858;28;20072;-69
2021/06/07 03:27:10;;;;;;;19.50;17.42;;;18.00;99.90;;;;;;2074838;28;20037;-69
2021/06/07 03:28:12;;;;;;;20.40;16.45;;;17.90;99.90;;;;;;2081250;28;20026;-69
2021/06/07 03:29:12;;;;;;;21.92;17.23;;;18.00;99.90;;;;;;2081224;28;20457;-69
2021/06/07 03:30:14;;;;;;;17.02;15.20;;;17.90;99.90;;;;;;2081096;28;20376;-69
2021/06/07 03:31:14;;;;;;;20.38;15.15;;;17.90;99.90;;;;;;2081345;28;20028;-69
2021/06/07 03:32:15;;;;;;;23.17;17.83;;;17.90;99.90;;;;;;2080789;28;20022;-69
2021/06/07 03:33:17;;;;;;;21.02;17.25;;;17.90;99.90;;;;;;2081039;28;20377;-69
2021/06/07 03:34:17;;;;;;;25.05;18.90;;;17.90;99.90;;;;;;2081051;28;20108;-69
2021/06/07 03:35:19;;;;;;;19.63;17.30;;;17.90;99.90;;;;;;2075881;28;20022;-69
2021/06/07 03:36:22;;;;;;;22.70;17.48;;;17.90;99.90;;;;;;2075180;28;20054;-69
2021/06/07 03:37:22;;;;;;;21.58;16.75;;;18.00;99.90;;;;;;2078175;28;20522;-69
2021/06/07 03:38:25;;;;;;;24.17;16.63;;;18.00;99.90;;;;;;2080555;28;20414;-69
2021/06/07 03:39:26;;;;;;;23.33;16.67;;;18.00;99.90;;;;;;2073129;28;20026;-69
2021/06/07 03:40:30;;;;;;;21.30;17.67;;;17.90;99.90;;;;;;2076538;28;20458;-69
2021/06/07 03:41:30;;;;;;;19.27;15.45;;;18.00;99.90;;;;;;2080962;28;20373;-69
2021/06/07 03:42:32;;;;;;;22.92;18.35;;;18.00;99.90;;;;;;2080574;28;20030;-69
2021/06/07 03:43:34;;;;;;;24.10;17.75;;;18.00;99.90;;;;;;2073519;28;20022;-69
2021/06/07 03:44:35;;;;;;;20.52;14.93;;;18.00;99.90;;;;;;2068313;28;20489;-69
2021/06/07 03:45:35;;;;;;;15.60;13.38;;;17.90;99.90;;;;;;2075278;28;20444;-69
2021/06/07 03:46:36;;;;;;;24.20;16.98;;;18.00;99.90;;;;;;2076380;28;20062;-69
2021/06/07 03:47:37;;;;;;;24.17;18.50;;;18.00;99.90;;;;;;2077473;28;20024;-69
2021/06/07 03:48:37;;;;;;;19.25;16.65;;;18.00;99.90;;;;;;2076929;28;20030;-69
2021/06/07 03:49:38;;;;;;;19.55;16.33;;;18.00;99.90;;;;;;2073011;28;20050;-69
2021/06/07 03:50:40;;;;;;;22.13;18.23;;;18.00;99.90;;;;;;2072783;28;20145;-69
2021/06/07 03:51:40;;;;;;;19.25;15.00;;;18.00;99.90;;;;;;2072042;28;20072;-69
2021/06/07 03:52:41;;;;;;;18.55;14.98;;;18.00;99.90;;;;;;2072140;28;20485;-69
2021/06/07 03:53:42;;;;;;;20.77;18.08;;;18.00;99.90;;;;;;2072196;28;20400;-69
2021/06/07 03:54:42;;;;;;;23.15;18.92;;;18.00;99.90;;;;;;2070139;28;20071;-69
2021/06/07 03:55:45;;;;;;;24.85;18.20;;;18.00;99.90;;;;;;2092890;28;20016;-69
2021/06/07 03:56:45;;;;;;;19.77;17.52;;;18.00;99.90;;;;;;2087443;28;20067;-69
2021/06/07 03:57:47;;;;;;;20.08;17.13;;;18.00;99.90;;;;;;2072751;28;20445;-69
2021/06/07 03:58:47;;;;;;;20.80;16.48;;;18.00;99.90;;;;;;2072786;28;20414;-69
2021/06/07 03:59:48;;;;;;;20.63;16.33;;;18.00;99.90;;;;;;2072972;28;20026;-69
2021/06/07 04:00:49;;;;;;;17.27;13.60;;;18.00;99.90;;;;;;2083999;28;20045;-69
2021/06/07 04:01:49;;;;;;;19.65;14.85;;;18.00;99.90;;;;;;2079371;28;20060;-69
2021/06/07 04:02:50;;;;;;;19.65;15.15;;;18.00;99.90;;;;;;2072310;28;20030;-69
2021/06/07 04:03:51;;;;;;;19.85;15.13;;;18.00;99.90;;;;;;2071567;28;20025;-69
2021/06/07 04:04:52;;;;;;;19.70;14.10;;;18.00;99.90;;;;;;2071292;28;20026;-69
2021/06/07 04:05:52;;;;;;;21.95;13.73;;;18.00;99.90;;;;;;2071371;28;20381;-69
2021/06/07 04:06:53;;;;;;;19.35;14.73;;;18.00;99.90;;;;;;2070570;28;20473;-69
2021/06/07 04:07:55;;;;;;;19.63;14.18;;;18.00;99.90;;;;;;2073826;28;20024;-69
2021/06/07 04:08:58;;;;;;;20.83;14.75;;;18.00;99.90;;;;;;2079376;28;20356;-69
2021/06/07 04:09:58;;;;;;;20.10;14.73;;;17.90;99.90;;;;;;2079315;28;20037;-69
2021/06/07 04:10:59;;;;;;;21.10;14.18;;;18.00;99.90;;;;;;2079363;28;20477;-69
2021/06/07 04:11:59;;;;;;;20.00;14.13;;;17.90;99.90;;;;;;2079117;28;20061;-69
2021/06/07 04:13:00;;;;;;;19.05;14.10;;;17.90;99.90;;;;;;2079655;28;20457;-69
2021/06/07 04:14:01;;;;;;;16.58;13.98;;;17.90;99.90;;;;;;2078993;28;20030;-69
2021/06/07 04:15:03;;;;;;;19.13;14.90;;;17.90;99.90;;;;;;2079654;28;20051;-69
2021/06/07 04:16:07;;;;;;;20.63;16.25;;;17.90;99.90;;;;;;2079183;28;20520;-69
2021/06/07 04:17:08;;;;;;;16.30;13.70;;;18.00;99.90;;;;;;2077920;28;20036;-69
2021/06/07 04:18:09;;;;;;;21.83;16.15;;;17.90;99.90;;;;;;2071057;28;20444;-69
2021/06/07 04:19:09;;;;;;;19.70;15.93;;;17.90;99.90;;;;;;2071404;28;20038;-69
2021/06/07 04:20:13;;;;;;;19.50;15.48;;;17.90;99.90;;;;;;2071287;28;20105;-69
2021/06/07 04:21:14;;;;;;;20.35;16.52;;;17.90;99.90;;;;;;2062393;28;20027;-69
2021/06/07 04:22:15;;;;;;;21.65;17.02;;;17.90;99.90;;;;;;2061979;28;20030;-69
2021/06/07 04:23:15;;;;;;;21.65;17.33;;;17.90;99.90;;;;;;2063253;28;20173;-69
2021/06/07 04:24:16;;;;;;;22.02;17.25;;;17.90;99.90;;;;;;2068265;28;20038;-69
2021/06/07 04:25:20;;;;;;;20.55;16.42;;;17.90;99.90;;;;;;2071231;28;20082;-69
2021/06/07 04:26:20;;;;;;;23.40;17.48;;;17.90;99.90;;;;;;2071827;28;20105;-69
2021/06/07 04:27:21;;;;;;;24.60;17.25;;;18.00;99.90;;;;;;2075160;28;20081;-69
2021/06/07 04:28:22;;;;;;;22.25;17.67;;;17.90;99.90;;;;;;2079482;28;20033;-69
2021/06/07 04:29:22;;;;;;;20.08;16.15;;;17.90;99.90;;;;;;2072667;28;20033;-69
2021/06/07 04:30:24;;;;;;;21.10;17.20;;;17.90;99.90;;;;;;2071530;28;20053;-69
2021/06/07 04:31:25;;;;;;;21.13;16.83;;;17.90;99.90;;;;;;2073453;28;20470;-69
2021/06/07 04:32:26;;;;;;;25.70;18.23;;;17.90;99.90;;;;;;2074973;28;20414;-69
2021/06/07 04:33:26;;;;;;;25.70;18.25;;;17.90;99.90;;;;;;2071278;28;20021;-69
2021/06/07 04:34:27;;;;;;;24.42;17.63;;;17.90;99.90;;;;;;2074233;28;20024;-69
2021/06/07 04:35:28;;;;;;;21.80;16.40;;;17.90;99.90;;;;;;2078902;28;20025;-69
2021/06/07 04:36:28;;;;;;;19.55;17.08;;;18.00;99.90;;;;;;2078074;28;20031;-68
2021/06/07 04:37:29;;;;;;;18.20;15.88;;;18.00;99.90;;;;;;2074598;28;20074;-69
2021/06/07 04:38:30;;;;;;;16.98;14.90;;;18.00;99.90;;;;;;2072704;28;20022;-69
2021/06/07 04:39:30;;;;;;;18.70;16.10;;;18.00;99.90;;;;;;2075036;28;20057;-69
2021/06/07 04:40:35;;;;;;;20.80;15.95;;;17.90;99.90;;;;;;2073898;28;20026;-69
2021/06/07 04:41:35;;;;;;;23.25;16.77;;;18.00;99.90;;;;;;2070782;28;20075;-69
2021/06/07 04:42:36;;;;;;;20.67;15.75;;;17.90;99.90;;;;;;2071221;28;20146;-69
2021/06/07 04:43:36;;;;;;;19.98;15.23;;;17.90;99.90;;;;;;2070072;28;20022;-69
2021/06/07 04:44:37;;;;;;;20.40;16.35;;;17.90;99.90;;;;;;2071087;28;20354;-69
2021/06/07 04:45:39;;;;;;;20.70;15.38;;;17.90;99.90;;;;;;2067568;28;20022;-69
2021/06/07 04:46:40;;;;;;;20.25;15.88;;;17.90;99.90;;;;;;2066145;28;20071;-69
2021/06/07 04:47:40;;;;;;;18.40;15.02;;;17.90;99.90;;;;;;2064902;28;20135;-69
2021/06/07 04:48:42;;;;;;;18.05;15.20;;;17.90;99.90;;;;;;2065461;28;20087;-69
2021/06/07 04:49:43;;;;;;;15.35;12.35;;;17.90;99.90;;;;;;2067105;28;20034;-69
2021/06/07 04:50:45;;;;;;;17.80;14.23;;;17.90;99.90;;;;;;2065757;28;20093;-69
2021/06/07 04:51:46;;;;;;;19.27;16.83;;;17.90;99.90;;;;;;2064168;28;20010;-69
2021/06/07 04:53:00;;;;;;;22.17;16.40;;;17.90;99.90;;;;;;2064961;28;20224;-69
2021/06/07 04:54:00;;;;;;;20.67;14.60;;;17.90;99.90;;;;;;2065360;28;20076;-69
2021/06/07 04:55:02;;;;;;;19.27;16.65;;;17.90;99.90;;;;;;2065652;28;20060;-69
2021/06/07 04:56:03;;;;;;;20.55;16.40;;;17.90;99.90;;;;;;2066828;28;20046;-69
2021/06/07 04:57:04;;;;;;;22.35;15.55;;;17.90;99.90;;;;;;2063216;28;20034;-69
2021/06/07 04:58:10;;;;;;;20.90;16.33;;;17.90;99.90;;;;;;2065988;28;20033;-69
2021/06/07 04:59:11;;;;;;;20.63;15.82;;;17.90;99.90;;;;;;2070650;28;20432;-69
2021/06/07 05:00:12;;;;;;;22.40;15.02;;;17.80;99.90;;;;;;2070200;28;20033;-69
2021/06/07 05:01:14;;;;;;;21.55;15.15;;;17.90;99.90;;;;;;2085426;28;20033;-69
2021/06/07 05:02:15;;;;;;;16.60;14.90;;;17.80;99.90;;;;;;2071404;28;20066;-69
2021/06/07 05:03:17;;;;;;;18.52;15.30;;;17.80;99.90;;;;;;2070813;28;20529;-69
2021/06/07 05:04:18;;;;;;;17.90;15.00;;;17.80;99.90;;;;;;2070980;28;20029;-69
2021/06/07 05:05:19;;;;;;;16.83;14.63;;;17.80;99.90;;;;;;2071759;28;20053;-68
2021/06/07 05:06:20;;;;;;;18.67;15.45;;;17.80;99.90;;;;;;2067875;28;20450;-68
2021/06/07 05:07:20;;;;;;;24.00;15.80;;;17.80;99.90;;;;;;2071724;28;20377;-68
2021/06/07 05:08:22;;;;;;;21.08;14.95;;;17.80;99.90;;;;;;2072165;28;20036;-69
2021/06/07 05:09:22;;;;;;;18.25;15.98;;;17.80;99.90;;;;;;2071645;28;20021;-70
2021/06/07 05:10:23;;;;;;;23.75;16.05;;;17.90;99.90;;;;;;2072489;28;20033;-68
2021/06/07 05:11:23;;;;;;;17.20;14.98;;;17.90;99.90;;;;;;2072959;28;20033;-68
2021/06/07 05:12:24;;;;;;;21.83;16.60;;;17.80;99.90;;;;;;2072344;28;20022;-68